sensor_id;sensor_type;location;lat;lon;timestamp;P1;durP1;ratioP1;P2;durP2;ratioP2
67981;SDS011;64109;52.148;4.466;2023-02-22T00:00:51;22.25;;;8.90;;
67981;SDS011;64109;52.148;4.466;2023-02-22T00:03:18;24.23;;;9.27;;
67981;SDS011;64109;52.148;4.466;2023-02-22T00:05:55;21.83;;;9.07;;
67981;SDS011;64109;52.148;4.466;2023-02-22T00:08:23;21.42;;;8.90;;
67981;SDS011;64109;52.148;4.466;2023-02-22T00:10:49;25.05;;;10.25;;
67981;SDS011;64109;52.148;4.466;2023-02-22T00:13:16;24.48;;;9.00;;
67981;SDS011;64109;52.148;4.466;2023-02-22T00:15:42;22.85;;;8.98;;
67981;SDS011;64109;52.148;4.466;2023-02-22T00:18:11;23.42;;;10.00;;
67981;SDS011;64109;52.148;4.466;2023-02-22T00:20:37;24.27;;;9.80;;
67981;SDS011;64109;52.148;4.466;2023-02-22T00:23:04;24.63;;;11.38;;
67981;SDS011;64109;52.148;4.466;2023-02-22T00:25:34;24.23;;;9.55;;
67981;SDS011;64109;52.148;4.466;2023-02-22T00:28:01;22.55;;;9.60;;
67981;SDS011;64109;52.148;4.466;2023-02-22T00:30:29;24.52;;;9.35;;
67981;SDS011;64109;52.148;4.466;2023-02-22T00:32:55;23.05;;;9.95;;
67981;SDS011;64109;52.148;4.466;2023-02-22T00:35:23;22.80;;;9.45;;
67981;SDS011;64109;52.148;4.466;2023-02-22T00:37:49;23.48;;;10.27;;
67981;SDS011;64109;52.148;4.466;2023-02-22T00:40:17;23.70;;;11.65;;
67981;SDS011;64109;52.148;4.466;2023-02-22T00:42:43;22.90;;;9.23;;
67981;SDS011;64109;52.148;4.466;2023-02-22T00:45:10;21.38;;;9.02;;
67981;SDS011;64109;52.148;4.466;2023-02-22T00:47:36;21.73;;;9.98;;
67981;SDS011;64109;52.148;4.466;2023-02-22T00:50:02;20.67;;;9.18;;
67981;SDS011;64109;52.148;4.466;2023-02-22T00:52:28;22.52;;;9.38;;
67981;SDS011;64109;52.148;4.466;2023-02-22T00:54:55;21.13;;;9.60;;
67981;SDS011;64109;52.148;4.466;2023-02-22T00:57:22;22.00;;;9.65;;
67981;SDS011;64109;52.148;4.466;2023-02-22T00:59:48;20.83;;;8.68;;
67981;SDS011;64109;52.148;4.466;2023-02-22T01:02:14;22.52;;;9.43;;
67981;SDS011;64109;52.148;4.466;2023-02-22T01:04:40;23.58;;;9.80;;
67981;SDS011;64109;52.148;4.466;2023-02-22T01:07:06;21.73;;;9.52;;
67981;SDS011;64109;52.148;4.466;2023-02-22T01:09:32;22.98;;;9.18;;
67981;SDS011;64109;52.148;4.466;2023-02-22T01:11:59;23.30;;;10.38;;
67981;SDS011;64109;52.148;4.466;2023-02-22T01:14:25;23.48;;;9.63;;
67981;SDS011;64109;52.148;4.466;2023-02-22T01:16:55;22.67;;;9.57;;
67981;SDS011;64109;52.148;4.466;2023-02-22T01:19:21;22.33;;;9.85;;
67981;SDS011;64109;52.148;4.466;2023-02-22T01:21:48;21.00;;;9.43;;
67981;SDS011;64109;52.148;4.466;2023-02-22T01:24:15;21.08;;;9.43;;
67981;SDS011;64109;52.148;4.466;2023-02-22T01:26:41;22.70;;;9.95;;
67981;SDS011;64109;52.148;4.466;2023-02-22T01:29:12;20.48;;;10.70;;
67981;SDS011;64109;52.148;4.466;2023-02-22T01:31:41;21.23;;;9.80;;
67981;SDS011;64109;52.148;4.466;2023-02-22T01:34:10;21.30;;;9.38;;
67981;SDS011;64109;52.148;4.466;2023-02-22T01:36:37;22.02;;;11.73;;
67981;SDS011;64109;52.148;4.466;2023-02-22T01:39:06;22.42;;;9.52;;
67981;SDS011;64109;52.148;4.466;2023-02-22T01:41:34;21.00;;;9.35;;
67981;SDS011;64109;52.148;4.466;2023-02-22T01:46:45;22.25;;;9.80;;
67981;SDS011;64109;52.148;4.466;2023-02-22T01:49:11;22.33;;;9.48;;
67981;SDS011;64109;52.148;4.466;2023-02-22T01:51:39;22.42;;;9.05;;
67981;SDS011;64109;52.148;4.466;2023-02-22T01:54:12;23.63;;;9.43;;
67981;SDS011;64109;52.148;4.466;2023-02-22T01:56:40;20.80;;;9.48;;
67981;SDS011;64109;52.148;4.466;2023-02-22T01:59:08;22.25;;;10.25;;
67981;SDS011;64109;52.148;4.466;2023-02-22T02:01:35;20.80;;;9.57;;
67981;SDS011;64109;52.148;4.466;2023-02-22T02:04:04;20.50;;;9.57;;
67981;SDS011;64109;52.148;4.466;2023-02-22T02:06:31;22.52;;;9.88;;
67981;SDS011;64109;52.148;4.466;2023-02-22T02:11:59;20.25;;;9.35;;
67981;SDS011;64109;52.148;4.466;2023-02-22T02:14:26;24.80;;;10.63;;
67981;SDS011;64109;52.148;4.466;2023-02-22T02:16:55;22.05;;;9.68;;
67981;SDS011;64109;52.148;4.466;2023-02-22T02:22:09;20.00;;;9.57;;
67981;SDS011;64109;52.148;4.466;2023-02-22T02:27:13;18.45;;;8.88;;
67981;SDS011;64109;52.148;4.466;2023-02-22T02:35:02;18.88;;;8.90;;
67981;SDS011;64109;52.148;4.466;2023-02-22T02:37:31;17.58;;;8.45;;
67981;SDS011;64109;52.148;4.466;2023-02-22T02:40:10;18.25;;;8.75;;
67981;SDS011;64109;52.148;4.466;2023-02-22T02:42:42;18.58;;;8.55;;
67981;SDS011;64109;52.148;4.466;2023-02-22T02:45:16;21.58;;;10.63;;
67981;SDS011;64109;52.148;4.466;2023-02-22T02:47:44;19.15;;;8.57;;
67981;SDS011;64109;52.148;4.466;2023-02-22T02:50:35;22.05;;;9.77;;
67981;SDS011;64109;52.148;4.466;2023-02-22T02:52:58;19.70;;;8.63;;
67981;SDS011;64109;52.148;4.466;2023-02-22T02:55:26;20.27;;;9.40;;
67981;SDS011;64109;52.148;4.466;2023-02-22T02:57:53;18.50;;;8.27;;
67981;SDS011;64109;52.148;4.466;2023-02-22T03:00:19;21.45;;;9.82;;
67981;SDS011;64109;52.148;4.466;2023-02-22T03:02:59;21.45;;;9.50;;
67981;SDS011;64109;52.148;4.466;2023-02-22T03:08:12;16.77;;;7.80;;
67981;SDS011;64109;52.148;4.466;2023-02-22T03:13:39;19.10;;;9.02;;
67981;SDS011;64109;52.148;4.466;2023-02-22T03:19:11;12.82;;;6.38;;
67981;SDS011;64109;52.148;4.466;2023-02-22T03:21:50;15.82;;;7.10;;
67981;SDS011;64109;52.148;4.466;2023-02-22T03:26:47;14.65;;;6.72;;
67981;SDS011;64109;52.148;4.466;2023-02-22T03:29:14;13.93;;;7.13;;
67981;SDS011;64109;52.148;4.466;2023-02-22T03:31:44;16.90;;;8.10;;
67981;SDS011;64109;52.148;4.466;2023-02-22T03:34:13;16.73;;;7.85;;
67981;SDS011;64109;52.148;4.466;2023-02-22T03:37:14;15.23;;;6.85;;
67981;SDS011;64109;52.148;4.466;2023-02-22T03:39:33;16.75;;;8.27;;
67981;SDS011;64109;52.148;4.466;2023-02-22T03:42:05;16.92;;;7.55;;
67981;SDS011;64109;52.148;4.466;2023-02-22T03:44:33;15.98;;;8.48;;
67981;SDS011;64109;52.148;4.466;2023-02-22T03:47:03;17.38;;;8.65;;
67981;SDS011;64109;52.148;4.466;2023-02-22T03:49:32;15.80;;;7.70;;
67981;SDS011;64109;52.148;4.466;2023-02-22T03:51:59;12.90;;;6.68;;
67981;SDS011;64109;52.148;4.466;2023-02-22T03:54:26;17.38;;;8.20;;
67981;SDS011;64109;52.148;4.466;2023-02-22T03:56:53;14.13;;;6.78;;
67981;SDS011;64109;52.148;4.466;2023-02-22T03:59:20;13.40;;;6.40;;
67981;SDS011;64109;52.148;4.466;2023-02-22T04:01:49;14.68;;;7.13;;
67981;SDS011;64109;52.148;4.466;2023-02-22T04:04:15;12.85;;;6.35;;
67981;SDS011;64109;52.148;4.466;2023-02-22T04:06:42;18.42;;;8.23;;
67981;SDS011;64109;52.148;4.466;2023-02-22T04:09:08;15.93;;;7.65;;
67981;SDS011;64109;52.148;4.466;2023-02-22T04:11:34;16.80;;;8.05;;
67981;SDS011;64109;52.148;4.466;2023-02-22T04:14:00;14.68;;;7.18;;
67981;SDS011;64109;52.148;4.466;2023-02-22T04:16:26;19.17;;;9.90;;
67981;SDS011;64109;52.148;4.466;2023-02-22T04:18:52;17.48;;;8.60;;
67981;SDS011;64109;52.148;4.466;2023-02-22T04:21:18;16.25;;;7.97;;
67981;SDS011;64109;52.148;4.466;2023-02-22T04:23:44;16.65;;;7.63;;
67981;SDS011;64109;52.148;4.466;2023-02-22T04:26:10;16.13;;;8.38;;
67981;SDS011;64109;52.148;4.466;2023-02-22T04:28:36;15.65;;;7.78;;
67981;SDS011;64109;52.148;4.466;2023-02-22T04:31:02;15.68;;;7.82;;
67981;SDS011;64109;52.148;4.466;2023-02-22T04:33:28;17.63;;;8.95;;
67981;SDS011;64109;52.148;4.466;2023-02-22T04:35:54;19.92;;;8.82;;
67981;SDS011;64109;52.148;4.466;2023-02-22T04:38:21;18.15;;;7.85;;
67981;SDS011;64109;52.148;4.466;2023-02-22T04:40:50;17.80;;;8.25;;
67981;SDS011;64109;52.148;4.466;2023-02-22T04:43:16;18.17;;;8.82;;
67981;SDS011;64109;52.148;4.466;2023-02-22T04:45:42;15.02;;;9.13;;
67981;SDS011;64109;52.148;4.466;2023-02-22T04:48:08;14.13;;;7.15;;
67981;SDS011;64109;52.148;4.466;2023-02-22T04:50:34;13.82;;;6.85;;
67981;SDS011;64109;52.148;4.466;2023-02-22T04:53:00;15.05;;;7.45;;
67981;SDS011;64109;52.148;4.466;2023-02-22T04:55:26;14.85;;;6.80;;
67981;SDS011;64109;52.148;4.466;2023-02-22T04:57:52;13.07;;;6.78;;
67981;SDS011;64109;52.148;4.466;2023-02-22T05:00:18;12.73;;;6.82;;
67981;SDS011;64109;52.148;4.466;2023-02-22T05:02:48;13.98;;;6.82;;
67981;SDS011;64109;52.148;4.466;2023-02-22T05:05:14;14.18;;;6.68;;
67981;SDS011;64109;52.148;4.466;2023-02-22T05:07:40;13.93;;;7.20;;
67981;SDS011;64109;52.148;4.466;2023-02-22T05:10:07;12.90;;;6.30;;
67981;SDS011;64109;52.148;4.466;2023-02-22T05:12:33;14.82;;;7.30;;
67981;SDS011;64109;52.148;4.466;2023-02-22T05:14:59;13.40;;;6.20;;
67981;SDS011;64109;52.148;4.466;2023-02-22T05:17:25;12.18;;;7.18;;
67981;SDS011;64109;52.148;4.466;2023-02-22T05:19:52;12.10;;;6.50;;
67981;SDS011;64109;52.148;4.466;2023-02-22T05:22:18;12.88;;;6.75;;
67981;SDS011;64109;52.148;4.466;2023-02-22T05:24:44;12.93;;;8.07;;
67981;SDS011;64109;52.148;4.466;2023-02-22T05:27:10;10.93;;;6.20;;
67981;SDS011;64109;52.148;4.466;2023-02-22T05:29:36;12.98;;;7.35;;
67981;SDS011;64109;52.148;4.466;2023-02-22T05:32:02;13.45;;;6.78;;
67981;SDS011;64109;52.148;4.466;2023-02-22T05:34:28;12.73;;;6.38;;
67981;SDS011;64109;52.148;4.466;2023-02-22T05:36:55;14.65;;;7.28;;
67981;SDS011;64109;52.148;4.466;2023-02-22T05:39:21;15.02;;;6.82;;
67981;SDS011;64109;52.148;4.466;2023-02-22T05:41:46;12.02;;;5.60;;
67981;SDS011;64109;52.148;4.466;2023-02-22T05:44:13;14.68;;;7.05;;
67981;SDS011;64109;52.148;4.466;2023-02-22T05:46:39;14.10;;;6.82;;
67981;SDS011;64109;52.148;4.466;2023-02-22T05:49:05;14.00;;;6.80;;
67981;SDS011;64109;52.148;4.466;2023-02-22T05:51:31;12.00;;;6.47;;
67981;SDS011;64109;52.148;4.466;2023-02-22T05:53:57;14.30;;;6.60;;
67981;SDS011;64109;52.148;4.466;2023-02-22T05:56:27;13.38;;;6.85;;
67981;SDS011;64109;52.148;4.466;2023-02-22T05:58:54;13.00;;;6.28;;
67981;SDS011;64109;52.148;4.466;2023-02-22T06:01:20;14.20;;;7.07;;
67981;SDS011;64109;52.148;4.466;2023-02-22T06:03:47;16.45;;;7.38;;
67981;SDS011;64109;52.148;4.466;2023-02-22T06:06:13;12.85;;;7.53;;
67981;SDS011;64109;52.148;4.466;2023-02-22T06:08:39;12.63;;;6.57;;
67981;SDS011;64109;52.148;4.466;2023-02-22T06:11:05;11.73;;;6.13;;
67981;SDS011;64109;52.148;4.466;2023-02-22T06:13:33;10.20;;;5.55;;
67981;SDS011;64109;52.148;4.466;2023-02-22T06:15:59;13.13;;;5.78;;
67981;SDS011;64109;52.148;4.466;2023-02-22T06:18:25;11.52;;;6.05;;
67981;SDS011;64109;52.148;4.466;2023-02-22T06:20:54;12.50;;;7.15;;
67981;SDS011;64109;52.148;4.466;2023-02-22T06:23:20;11.73;;;5.82;;
67981;SDS011;64109;52.148;4.466;2023-02-22T06:25:46;12.30;;;6.97;;
67981;SDS011;64109;52.148;4.466;2023-02-22T06:28:12;10.68;;;5.68;;
67981;SDS011;64109;52.148;4.466;2023-02-22T06:30:39;10.45;;;5.65;;
67981;SDS011;64109;52.148;4.466;2023-02-22T06:33:06;10.43;;;5.65;;
67981;SDS011;64109;52.148;4.466;2023-02-22T06:35:32;11.43;;;5.95;;
67981;SDS011;64109;52.148;4.466;2023-02-22T06:37:58;10.93;;;5.78;;
67981;SDS011;64109;52.148;4.466;2023-02-22T06:40:24;10.55;;;5.65;;
67981;SDS011;64109;52.148;4.466;2023-02-22T06:42:53;9.48;;;5.45;;
67981;SDS011;64109;52.148;4.466;2023-02-22T06:45:19;9.63;;;5.32;;
67981;SDS011;64109;52.148;4.466;2023-02-22T06:47:46;9.20;;;4.97;;
67981;SDS011;64109;52.148;4.466;2023-02-22T06:50:23;10.93;;;5.22;;
67981;SDS011;64109;52.148;4.466;2023-02-22T06:52:50;9.90;;;5.13;;
67981;SDS011;64109;52.148;4.466;2023-02-22T06:55:29;9.73;;;5.40;;
67981;SDS011;64109;52.148;4.466;2023-02-22T06:57:55;9.43;;;5.03;;
67981;SDS011;64109;52.148;4.466;2023-02-22T07:00:22;9.38;;;5.05;;
67981;SDS011;64109;52.148;4.466;2023-02-22T07:02:49;9.32;;;5.45;;
67981;SDS011;64109;52.148;4.466;2023-02-22T07:05:16;9.35;;;5.18;;
67981;SDS011;64109;52.148;4.466;2023-02-22T07:07:43;8.43;;;4.63;;
67981;SDS011;64109;52.148;4.466;2023-02-22T07:10:16;14.23;;;7.05;;
67981;SDS011;64109;52.148;4.466;2023-02-22T07:12:43;10.98;;;5.35;;
67981;SDS011;64109;52.148;4.466;2023-02-22T07:15:09;16.13;;;7.82;;
67981;SDS011;64109;52.148;4.466;2023-02-22T07:17:35;15.50;;;7.75;;
67981;SDS011;64109;52.148;4.466;2023-02-22T07:20:01;17.45;;;8.02;;
67981;SDS011;64109;52.148;4.466;2023-02-22T07:22:27;15.30;;;7.68;;
67981;SDS011;64109;52.148;4.466;2023-02-22T07:24:54;15.32;;;7.60;;
67981;SDS011;64109;52.148;4.466;2023-02-22T07:27:20;14.70;;;7.30;;
67981;SDS011;64109;52.148;4.466;2023-02-22T07:29:46;18.65;;;6.72;;
67981;SDS011;64109;52.148;4.466;2023-02-22T07:32:13;17.67;;;7.97;;
67981;SDS011;64109;52.148;4.466;2023-02-22T07:34:40;14.63;;;7.10;;
67981;SDS011;64109;52.148;4.466;2023-02-22T07:37:06;11.57;;;6.32;;
67981;SDS011;64109;52.148;4.466;2023-02-22T07:39:32;13.77;;;6.50;;
67981;SDS011;64109;52.148;4.466;2023-02-22T07:41:59;12.63;;;6.03;;
67981;SDS011;64109;52.148;4.466;2023-02-22T07:44:25;12.95;;;6.18;;
67981;SDS011;64109;52.148;4.466;2023-02-22T07:46:51;11.70;;;5.57;;
67981;SDS011;64109;52.148;4.466;2023-02-22T07:49:17;9.73;;;5.05;;
67981;SDS011;64109;52.148;4.466;2023-02-22T07:51:43;9.50;;;4.57;;
67981;SDS011;64109;52.148;4.466;2023-02-22T07:54:09;8.80;;;4.63;;
67981;SDS011;64109;52.148;4.466;2023-02-22T07:56:35;8.10;;;4.57;;
67981;SDS011;64109;52.148;4.466;2023-02-22T07:59:01;7.60;;;4.18;;
67981;SDS011;64109;52.148;4.466;2023-02-22T08:01:27;6.32;;;3.60;;
67981;SDS011;64109;52.148;4.466;2023-02-22T08:03:53;8.98;;;4.78;;
67981;SDS011;64109;52.148;4.466;2023-02-22T08:06:19;7.45;;;3.60;;
67981;SDS011;64109;52.148;4.466;2023-02-22T08:08:49;8.00;;;3.97;;
67981;SDS011;64109;52.148;4.466;2023-02-22T08:11:15;6.93;;;3.95;;
67981;SDS011;64109;52.148;4.466;2023-02-22T08:13:41;6.30;;;3.25;;
67981;SDS011;64109;52.148;4.466;2023-02-22T08:16:07;5.43;;;3.25;;
67981;SDS011;64109;52.148;4.466;2023-02-22T08:18:33;6.22;;;3.40;;
67981;SDS011;64109;52.148;4.466;2023-02-22T08:21:02;6.78;;;3.67;;
67981;SDS011;64109;52.148;4.466;2023-02-22T08:23:28;6.82;;;3.70;;
67981;SDS011;64109;52.148;4.466;2023-02-22T08:25:55;7.10;;;3.58;;
67981;SDS011;64109;52.148;4.466;2023-02-22T08:28:22;5.72;;;3.25;;
67981;SDS011;64109;52.148;4.466;2023-02-22T08:30:49;5.90;;;3.13;;
67981;SDS011;64109;52.148;4.466;2023-02-22T08:33:15;5.95;;;3.38;;
67981;SDS011;64109;52.148;4.466;2023-02-22T08:35:43;14.02;;;5.95;;
67981;SDS011;64109;52.148;4.466;2023-02-22T08:40:42;6.28;;;3.72;;
67981;SDS011;64109;52.148;4.466;2023-02-22T08:43:08;7.43;;;4.75;;
67981;SDS011;64109;52.148;4.466;2023-02-22T08:45:34;10.18;;;4.50;;
67981;SDS011;64109;52.148;4.466;2023-02-22T08:48:00;9.15;;;4.03;;
67981;SDS011;64109;52.148;4.466;2023-02-22T08:50:27;8.93;;;4.72;;
67981;SDS011;64109;52.148;4.466;2023-02-22T08:52:54;8.32;;;4.60;;
67981;SDS011;64109;52.148;4.466;2023-02-22T08:55:21;13.13;;;4.22;;
67981;SDS011;64109;52.148;4.466;2023-02-22T08:57:47;8.75;;;4.55;;
67981;SDS011;64109;52.148;4.466;2023-02-22T09:00:14;10.27;;;5.65;;
67981;SDS011;64109;52.148;4.466;2023-02-22T09:02:41;8.50;;;4.00;;
67981;SDS011;64109;52.148;4.466;2023-02-22T09:05:07;8.85;;;4.20;;
67981;SDS011;64109;52.148;4.466;2023-02-22T09:07:33;8.32;;;4.55;;
67981;SDS011;64109;52.148;4.466;2023-02-22T09:09:59;11.13;;;6.05;;
67981;SDS011;64109;52.148;4.466;2023-02-22T09:12:25;11.95;;;4.25;;
67981;SDS011;64109;52.148;4.466;2023-02-22T09:14:51;10.95;;;4.38;;
67981;SDS011;64109;52.148;4.466;2023-02-22T09:17:17;9.57;;;5.45;;
67981;SDS011;64109;52.148;4.466;2023-02-22T09:19:43;8.60;;;4.53;;
67981;SDS011;64109;52.148;4.466;2023-02-22T09:22:09;10.00;;;4.35;;
67981;SDS011;64109;52.148;4.466;2023-02-22T09:24:35;7.20;;;3.60;;
67981;SDS011;64109;52.148;4.466;2023-02-22T09:27:01;7.70;;;4.50;;
67981;SDS011;64109;52.148;4.466;2023-02-22T09:29:28;8.05;;;4.50;;
67981;SDS011;64109;52.148;4.466;2023-02-22T09:31:54;8.10;;;5.13;;
67981;SDS011;64109;52.148;4.466;2023-02-22T09:34:22;8.27;;;3.95;;
67981;SDS011;64109;52.148;4.466;2023-02-22T09:36:53;8.65;;;4.80;;
67981;SDS011;64109;52.148;4.466;2023-02-22T09:39:20;9.20;;;4.28;;
67981;SDS011;64109;52.148;4.466;2023-02-22T09:46:46;9.63;;;5.40;;
67981;SDS011;64109;52.148;4.466;2023-02-22T09:49:21;7.00;;;3.75;;
67981;SDS011;64109;52.148;4.466;2023-02-22T09:51:57;8.25;;;4.10;;
67981;SDS011;64109;52.148;4.466;2023-02-22T09:54:38;7.38;;;3.85;;
67981;SDS011;64109;52.148;4.466;2023-02-22T09:57:08;7.78;;;4.00;;
67981;SDS011;64109;52.148;4.466;2023-02-22T09:59:39;8.93;;;4.40;;
67981;SDS011;64109;52.148;4.466;2023-02-22T10:04:44;7.50;;;4.20;;
67981;SDS011;64109;52.148;4.466;2023-02-22T10:07:14;8.43;;;5.10;;
67981;SDS011;64109;52.148;4.466;2023-02-22T10:09:42;7.05;;;4.03;;
67981;SDS011;64109;52.148;4.466;2023-02-22T10:12:15;6.13;;;3.80;;
67981;SDS011;64109;52.148;4.466;2023-02-22T10:15:27;6.28;;;3.63;;
67981;SDS011;64109;52.148;4.466;2023-02-22T10:17:55;6.45;;;3.85;;
67981;SDS011;64109;52.148;4.466;2023-02-22T10:25:36;8.15;;;4.22;;
67981;SDS011;64109;52.148;4.466;2023-02-22T10:28:12;7.05;;;3.80;;
67981;SDS011;64109;52.148;4.466;2023-02-22T10:30:41;7.40;;;4.03;;
67981;SDS011;64109;52.148;4.466;2023-02-22T10:33:11;7.80;;;4.22;;
67981;SDS011;64109;52.148;4.466;2023-02-22T10:35:39;6.72;;;3.70;;
67981;SDS011;64109;52.148;4.466;2023-02-22T10:38:26;7.28;;;4.07;;
67981;SDS011;64109;52.148;4.466;2023-02-22T10:43:20;6.00;;;3.55;;
67981;SDS011;64109;52.148;4.466;2023-02-22T10:45:47;8.38;;;3.67;;
67981;SDS011;64109;52.148;4.466;2023-02-22T10:48:16;8.75;;;4.18;;
67981;SDS011;64109;52.148;4.466;2023-02-22T10:50:43;6.30;;;3.40;;
67981;SDS011;64109;52.148;4.466;2023-02-22T10:53:10;7.47;;;4.30;;
67981;SDS011;64109;52.148;4.466;2023-02-22T10:56:03;6.78;;;4.78;;
67981;SDS011;64109;52.148;4.466;2023-02-22T10:58:22;6.00;;;3.90;;
67981;SDS011;64109;52.148;4.466;2023-02-22T11:00:48;6.65;;;3.35;;
67981;SDS011;64109;52.148;4.466;2023-02-22T11:03:16;6.50;;;3.15;;
67981;SDS011;64109;52.148;4.466;2023-02-22T11:05:42;6.82;;;3.58;;
67981;SDS011;64109;52.148;4.466;2023-02-22T11:08:13;6.03;;;3.63;;
67981;SDS011;64109;52.148;4.466;2023-02-22T11:10:39;6.57;;;4.05;;
67981;SDS011;64109;52.148;4.466;2023-02-22T11:15:42;6.32;;;3.67;;
67981;SDS011;64109;52.148;4.466;2023-02-22T11:18:20;5.57;;;3.25;;
67981;SDS011;64109;52.148;4.466;2023-02-22T11:20:47;6.07;;;3.75;;
67981;SDS011;64109;52.148;4.466;2023-02-22T11:23:13;6.35;;;3.50;;
67981;SDS011;64109;52.148;4.466;2023-02-22T11:25:47;6.10;;;3.30;;
67981;SDS011;64109;52.148;4.466;2023-02-22T11:28:26;5.50;;;3.05;;
67981;SDS011;64109;52.148;4.466;2023-02-22T11:30:57;9.20;;;4.55;;
67981;SDS011;64109;52.148;4.466;2023-02-22T11:33:32;9.05;;;3.80;;
67981;SDS011;64109;52.148;4.466;2023-02-22T11:35:59;5.90;;;2.80;;
67981;SDS011;64109;52.148;4.466;2023-02-22T11:38:29;6.75;;;3.65;;
67981;SDS011;64109;52.148;4.466;2023-02-22T11:43:32;9.45;;;3.67;;
67981;SDS011;64109;52.148;4.466;2023-02-22T11:45:59;8.30;;;3.47;;
67981;SDS011;64109;52.148;4.466;2023-02-22T11:48:33;10.43;;;3.80;;
67981;SDS011;64109;52.148;4.466;2023-02-22T11:51:18;6.45;;;3.38;;
67981;SDS011;64109;52.148;4.466;2023-02-22T11:58:40;12.50;;;6.22;;
67981;SDS011;64109;52.148;4.466;2023-02-22T12:11:22;11.88;;;5.47;;
67981;SDS011;64109;52.148;4.466;2023-02-22T12:16:40;12.77;;;5.38;;
67981;SDS011;64109;52.148;4.466;2023-02-22T12:22:02;10.43;;;5.68;;
67981;SDS011;64109;52.148;4.466;2023-02-22T12:24:34;14.00;;;5.78;;
67981;SDS011;64109;52.148;4.466;2023-02-22T12:27:02;12.38;;;5.35;;
67981;SDS011;64109;52.148;4.466;2023-02-22T12:29:36;12.50;;;5.78;;
67981;SDS011;64109;52.148;4.466;2023-02-22T12:32:14;11.02;;;5.38;;
67981;SDS011;64109;52.148;4.466;2023-02-22T12:34:44;11.35;;;5.65;;
67981;SDS011;64109;52.148;4.466;2023-02-22T12:39:54;11.25;;;5.30;;
67981;SDS011;64109;52.148;4.466;2023-02-22T12:42:26;11.63;;;5.53;;
67981;SDS011;64109;52.148;4.466;2023-02-22T12:45:00;14.00;;;5.75;;
67981;SDS011;64109;52.148;4.466;2023-02-22T12:47:30;12.55;;;5.07;;
67981;SDS011;64109;52.148;4.466;2023-02-22T12:55:16;11.25;;;5.25;;
67981;SDS011;64109;52.148;4.466;2023-02-22T12:57:58;9.57;;;4.60;;
67981;SDS011;64109;52.148;4.466;2023-02-22T13:00:42;10.05;;;5.10;;
67981;SDS011;64109;52.148;4.466;2023-02-22T13:05:41;12.30;;;5.13;;
67981;SDS011;64109;52.148;4.466;2023-02-22T13:21:03;8.70;;;4.75;;
67981;SDS011;64109;52.148;4.466;2023-02-22T13:23:53;9.63;;;4.65;;
67981;SDS011;64109;52.148;4.466;2023-02-22T13:26:29;11.52;;;4.80;;
67981;SDS011;64109;52.148;4.466;2023-02-22T13:34:04;8.60;;;4.22;;
67981;SDS011;64109;52.148;4.466;2023-02-22T13:39:06;10.45;;;4.90;;
67981;SDS011;64109;52.148;4.466;2023-02-22T13:41:48;8.43;;;4.20;;
67981;SDS011;64109;52.148;4.466;2023-02-22T13:51:55;10.98;;;5.05;;
67981;SDS011;64109;52.148;4.466;2023-02-22T13:54:25;10.32;;;4.45;;
67981;SDS011;64109;52.148;4.466;2023-02-22T13:56:52;7.28;;;4.28;;
67981;SDS011;64109;52.148;4.466;2023-02-22T14:01:52;11.45;;;5.97;;
67981;SDS011;64109;52.148;4.466;2023-02-22T14:06:54;7.90;;;3.53;;
67981;SDS011;64109;52.148;4.466;2023-02-22T14:09:43;11.85;;;4.75;;
67981;SDS011;64109;52.148;4.466;2023-02-22T14:12:54;9.90;;;5.28;;
67981;SDS011;64109;52.148;4.466;2023-02-22T14:17:37;8.02;;;3.92;;
67981;SDS011;64109;52.148;4.466;2023-02-22T14:20:19;7.88;;;4.22;;
67981;SDS011;64109;52.148;4.466;2023-02-22T14:22:47;9.50;;;5.80;;
67981;SDS011;64109;52.148;4.466;2023-02-22T14:25:33;8.52;;;4.25;;
67981;SDS011;64109;52.148;4.466;2023-02-22T14:28:00;10.25;;;4.43;;
67981;SDS011;64109;52.148;4.466;2023-02-22T14:30:28;8.80;;;5.05;;
67981;SDS011;64109;52.148;4.466;2023-02-22T14:32:55;8.13;;;4.57;;
67981;SDS011;64109;52.148;4.466;2023-02-22T14:35:21;10.00;;;6.00;;
67981;SDS011;64109;52.148;4.466;2023-02-22T14:37:48;9.40;;;4.82;;
67981;SDS011;64109;52.148;4.466;2023-02-22T14:40:20;8.45;;;4.57;;
67981;SDS011;64109;52.148;4.466;2023-02-22T14:42:51;6.88;;;4.20;;
67981;SDS011;64109;52.148;4.466;2023-02-22T14:45:23;8.18;;;4.32;;
67981;SDS011;64109;52.148;4.466;2023-02-22T14:47:53;7.28;;;4.30;;
67981;SDS011;64109;52.148;4.466;2023-02-22T14:50:29;7.45;;;3.90;;
67981;SDS011;64109;52.148;4.466;2023-02-22T14:53:12;7.07;;;3.88;;
67981;SDS011;64109;52.148;4.466;2023-02-22T14:55:46;7.60;;;3.78;;
67981;SDS011;64109;52.148;4.466;2023-02-22T14:58:29;11.82;;;5.05;;
67981;SDS011;64109;52.148;4.466;2023-02-22T15:00:55;8.60;;;3.95;;
67981;SDS011;64109;52.148;4.466;2023-02-22T15:05:52;8.65;;;4.38;;
67981;SDS011;64109;52.148;4.466;2023-02-22T15:08:18;10.02;;;5.13;;
67981;SDS011;64109;52.148;4.466;2023-02-22T15:10:52;6.10;;;3.40;;
67981;SDS011;64109;52.148;4.466;2023-02-22T15:13:23;9.00;;;4.97;;
67981;SDS011;64109;52.148;4.466;2023-02-22T15:15:57;9.15;;;4.80;;
67981;SDS011;64109;52.148;4.466;2023-02-22T15:20:55;10.45;;;6.05;;
67981;SDS011;64109;52.148;4.466;2023-02-22T15:23:28;8.07;;;4.60;;
67981;SDS011;64109;52.148;4.466;2023-02-22T15:25:57;10.13;;;5.55;;
67981;SDS011;64109;52.148;4.466;2023-02-22T15:28:23;9.30;;;4.60;;
67981;SDS011;64109;52.148;4.466;2023-02-22T15:30:51;17.98;;;5.90;;
67981;SDS011;64109;52.148;4.466;2023-02-22T15:33:37;14.43;;;7.18;;
67981;SDS011;64109;52.148;4.466;2023-02-22T15:36:03;9.73;;;5.43;;
67981;SDS011;64109;52.148;4.466;2023-02-22T15:38:29;11.27;;;4.95;;
67981;SDS011;64109;52.148;4.466;2023-02-22T15:40:59;11.05;;;5.32;;
67981;SDS011;64109;52.148;4.466;2023-02-22T15:43:26;10.90;;;4.65;;
67981;SDS011;64109;52.148;4.466;2023-02-22T15:45:52;9.15;;;4.57;;
67981;SDS011;64109;52.148;4.466;2023-02-22T15:48:19;9.70;;;5.13;;
67981;SDS011;64109;52.148;4.466;2023-02-22T15:51:27;12.02;;;5.45;;
67981;SDS011;64109;52.148;4.466;2023-02-22T15:56:05;10.32;;;4.65;;
67981;SDS011;64109;52.148;4.466;2023-02-22T15:58:33;8.98;;;5.28;;
67981;SDS011;64109;52.148;4.466;2023-02-22T16:03:39;10.45;;;5.43;;
67981;SDS011;64109;52.148;4.466;2023-02-22T16:06:11;12.20;;;5.43;;
67981;SDS011;64109;52.148;4.466;2023-02-22T16:11:12;11.48;;;5.93;;
67981;SDS011;64109;52.148;4.466;2023-02-22T16:13:40;9.38;;;5.43;;
67981;SDS011;64109;52.148;4.466;2023-02-22T16:18:41;11.73;;;6.45;;
67981;SDS011;64109;52.148;4.466;2023-02-22T16:21:11;12.90;;;5.22;;
67981;SDS011;64109;52.148;4.466;2023-02-22T16:23:48;12.68;;;5.22;;
67981;SDS011;64109;52.148;4.466;2023-02-22T16:26:17;10.60;;;4.88;;
67981;SDS011;64109;52.148;4.466;2023-02-22T16:28:47;11.07;;;6.00;;
67981;SDS011;64109;52.148;4.466;2023-02-22T16:31:16;11.20;;;5.93;;
67981;SDS011;64109;52.148;4.466;2023-02-22T16:33:44;11.23;;;5.97;;
67981;SDS011;64109;52.148;4.466;2023-02-22T16:36:10;11.52;;;5.50;;
67981;SDS011;64109;52.148;4.466;2023-02-22T16:38:36;10.77;;;5.10;;
67981;SDS011;64109;52.148;4.466;2023-02-22T16:41:03;11.85;;;5.78;;
67981;SDS011;64109;52.148;4.466;2023-02-22T16:43:30;11.95;;;7.55;;
67981;SDS011;64109;52.148;4.466;2023-02-22T16:45:57;11.95;;;6.35;;
67981;SDS011;64109;52.148;4.466;2023-02-22T16:48:28;10.48;;;5.40;;
67981;SDS011;64109;52.148;4.466;2023-02-22T16:50:55;9.93;;;5.00;;
67981;SDS011;64109;52.148;4.466;2023-02-22T16:53:22;12.48;;;7.40;;
67981;SDS011;64109;52.148;4.466;2023-02-22T16:55:49;10.48;;;5.72;;
67981;SDS011;64109;52.148;4.466;2023-02-22T16:58:16;10.68;;;5.93;;
67981;SDS011;64109;52.148;4.466;2023-02-22T17:00:43;13.25;;;5.88;;